sensor_id;sensor_type;location;lat;lon;timestamp;P1;durP1;ratioP1;P2;durP2;ratioP2
69226;SDS011;56334;52.398;7.552;2023-03-11T00:00:54;5.07;;;1.65;;
69226;SDS011;56334;52.398;7.552;2023-03-11T00:03:22;10.57;;;2.80;;
69226;SDS011;56334;52.398;7.552;2023-03-11T00:05:49;10.23;;;2.83;;
69226;SDS011;56334;52.398;7.552;2023-03-11T00:08:16;8.82;;;2.80;;
69226;SDS011;56334;52.398;7.552;2023-03-11T00:10:43;6.97;;;2.40;;
69226;SDS011;56334;52.398;7.552;2023-03-11T00:13:10;6.20;;;1.70;;
69226;SDS011;56334;52.398;7.552;2023-03-11T00:15:38;10.10;;;2.05;;
69226;SDS011;56334;52.398;7.552;2023-03-11T00:18:04;6.68;;;2.20;;
69226;SDS011;56334;52.398;7.552;2023-03-11T00:20:32;7.35;;;2.60;;
69226;SDS011;56334;52.398;7.552;2023-03-11T00:22:59;8.45;;;2.63;;
69226;SDS011;56334;52.398;7.552;2023-03-11T00:25:26;11.20;;;2.67;;
69226;SDS011;56334;52.398;7.552;2023-03-11T00:27:53;8.45;;;2.47;;
69226;SDS011;56334;52.398;7.552;2023-03-11T00:30:19;8.40;;;2.30;;
69226;SDS011;56334;52.398;7.552;2023-03-11T00:32:47;8.13;;;2.40;;
69226;SDS011;56334;52.398;7.552;2023-03-11T00:35:15;8.02;;;2.47;;
69226;SDS011;56334;52.398;7.552;2023-03-11T00:37:41;6.13;;;1.77;;
69226;SDS011;56334;52.398;7.552;2023-03-11T00:40:13;6.88;;;1.63;;
69226;SDS011;56334;52.398;7.552;2023-03-11T00:42:39;8.52;;;1.90;;
69226;SDS011;56334;52.398;7.552;2023-03-11T00:45:06;7.85;;;2.40;;
69226;SDS011;56334;52.398;7.552;2023-03-11T00:47:32;7.10;;;2.30;;
69226;SDS011;56334;52.398;7.552;2023-03-11T00:49:58;7.78;;;2.05;;
69226;SDS011;56334;52.398;7.552;2023-03-11T00:52:24;8.50;;;2.13;;
69226;SDS011;56334;52.398;7.552;2023-03-11T00:54:50;6.60;;;1.60;;
69226;SDS011;56334;52.398;7.552;2023-03-11T00:57:16;4.80;;;1.00;;
69226;SDS011;56334;52.398;7.552;2023-03-11T00:59:45;7.80;;;1.67;;
69226;SDS011;56334;52.398;7.552;2023-03-11T01:02:11;6.07;;;1.00;;
69226;SDS011;56334;52.398;7.552;2023-03-11T01:04:37;5.57;;;1.40;;
69226;SDS011;56334;52.398;7.552;2023-03-11T01:07:03;5.22;;;1.33;;
69226;SDS011;56334;52.398;7.552;2023-03-11T01:09:29;5.38;;;1.40;;
69226;SDS011;56334;52.398;7.552;2023-03-11T01:11:55;6.30;;;1.52;;
69226;SDS011;56334;52.398;7.552;2023-03-11T01:14:22;6.53;;;1.85;;
69226;SDS011;56334;52.398;7.552;2023-03-11T01:16:48;7.18;;;1.50;;
69226;SDS011;56334;52.398;7.552;2023-03-11T01:19:15;9.05;;;1.80;;
69226;SDS011;56334;52.398;7.552;2023-03-11T01:21:41;4.40;;;1.05;;
69226;SDS011;56334;52.398;7.552;2023-03-11T01:24:07;7.22;;;1.77;;
69226;SDS011;56334;52.398;7.552;2023-03-11T01:26:33;7.03;;;1.50;;
69226;SDS011;56334;52.398;7.552;2023-03-11T01:28:59;6.88;;;1.65;;
69226;SDS011;56334;52.398;7.552;2023-03-11T01:31:25;6.93;;;1.52;;
69226;SDS011;56334;52.398;7.552;2023-03-11T01:33:51;8.52;;;1.83;;
69226;SDS011;56334;52.398;7.552;2023-03-11T01:36:17;7.53;;;1.80;;
69226;SDS011;56334;52.398;7.552;2023-03-11T01:38:43;6.45;;;1.60;;
69226;SDS011;56334;52.398;7.552;2023-03-11T01:41:10;4.50;;;1.13;;
69226;SDS011;56334;52.398;7.552;2023-03-11T01:43:38;5.85;;;1.52;;
69226;SDS011;56334;52.398;7.552;2023-03-11T01:46:07;5.28;;;1.48;;
69226;SDS011;56334;52.398;7.552;2023-03-11T01:48:33;4.50;;;1.08;;
69226;SDS011;56334;52.398;7.552;2023-03-11T01:50:59;6.22;;;1.60;;
69226;SDS011;56334;52.398;7.552;2023-03-11T01:53:27;7.57;;;1.77;;
69226;SDS011;56334;52.398;7.552;2023-03-11T01:55:53;10.77;;;2.10;;
69226;SDS011;56334;52.398;7.552;2023-03-11T01:58:21;8.77;;;1.65;;
69226;SDS011;56334;52.398;7.552;2023-03-11T02:00:48;6.25;;;1.70;;
69226;SDS011;56334;52.398;7.552;2023-03-11T02:03:17;6.50;;;1.30;;
69226;SDS011;56334;52.398;7.552;2023-03-11T02:05:43;5.85;;;1.40;;
69226;SDS011;56334;52.398;7.552;2023-03-11T02:08:10;6.53;;;1.73;;
69226;SDS011;56334;52.398;7.552;2023-03-11T02:10:36;8.63;;;1.75;;
69226;SDS011;56334;52.398;7.552;2023-03-11T02:13:03;9.55;;;1.75;;
69226;SDS011;56334;52.398;7.552;2023-03-11T02:15:29;4.15;;;1.17;;
69226;SDS011;56334;52.398;7.552;2023-03-11T02:17:56;8.35;;;1.80;;
69226;SDS011;56334;52.398;7.552;2023-03-11T02:22:56;5.97;;;1.45;;
69226;SDS011;56334;52.398;7.552;2023-03-11T02:25:26;9.70;;;1.67;;
69226;SDS011;56334;52.398;7.552;2023-03-11T02:27:54;6.47;;;1.75;;
69226;SDS011;56334;52.398;7.552;2023-03-11T02:30:21;9.05;;;1.60;;
69226;SDS011;56334;52.398;7.552;2023-03-11T02:32:48;6.63;;;1.70;;
69226;SDS011;56334;52.398;7.552;2023-03-11T02:35:14;7.97;;;1.83;;
69226;SDS011;56334;52.398;7.552;2023-03-11T02:37:48;6.78;;;1.65;;
69226;SDS011;56334;52.398;7.552;2023-03-11T02:42:47;8.10;;;1.83;;
69226;SDS011;56334;52.398;7.552;2023-03-11T02:45:13;1.65;;;0.35;;
69226;SDS011;56334;52.398;7.552;2023-03-11T02:47:41;7.60;;;1.70;;
69226;SDS011;56334;52.398;7.552;2023-03-11T02:50:08;10.10;;;1.60;;
69226;SDS011;56334;52.398;7.552;2023-03-11T02:52:35;6.60;;;1.60;;
69226;SDS011;56334;52.398;7.552;2023-03-11T02:55:01;7.93;;;1.65;;
69226;SDS011;56334;52.398;7.552;2023-03-11T02:57:28;8.48;;;2.05;;
69226;SDS011;56334;52.398;7.552;2023-03-11T02:59:54;7.40;;;1.55;;
69226;SDS011;56334;52.398;7.552;2023-03-11T03:02:20;5.75;;;1.35;;
69226;SDS011;56334;52.398;7.552;2023-03-11T03:04:46;7.05;;;1.63;;
69226;SDS011;56334;52.398;7.552;2023-03-11T03:07:13;7.72;;;1.63;;
69226;SDS011;56334;52.398;7.552;2023-03-11T03:09:39;8.50;;;1.85;;
69226;SDS011;56334;52.398;7.552;2023-03-11T03:12:05;7.25;;;1.73;;
69226;SDS011;56334;52.398;7.552;2023-03-11T03:14:31;8.73;;;1.92;;
69226;SDS011;56334;52.398;7.552;2023-03-11T03:16:57;4.28;;;1.10;;
69226;SDS011;56334;52.398;7.552;2023-03-11T03:19:24;7.65;;;1.45;;
69226;SDS011;56334;52.398;7.552;2023-03-11T03:21:50;5.50;;;1.67;;
69226;SDS011;56334;52.398;7.552;2023-03-11T03:24:16;3.65;;;0.88;;
69226;SDS011;56334;52.398;7.552;2023-03-11T03:26:42;3.42;;;0.65;;
69226;SDS011;56334;52.398;7.552;2023-03-11T03:29:08;4.22;;;0.75;;
69226;SDS011;56334;52.398;7.552;2023-03-11T03:31:34;7.95;;;1.30;;
69226;SDS011;56334;52.398;7.552;2023-03-11T03:34:00;9.35;;;1.90;;
69226;SDS011;56334;52.398;7.552;2023-03-11T03:36:26;10.15;;;1.83;;
69226;SDS011;56334;52.398;7.552;2023-03-11T03:38:53;7.97;;;1.60;;
69226;SDS011;56334;52.398;7.552;2023-03-11T03:41:19;8.18;;;2.03;;
69226;SDS011;56334;52.398;7.552;2023-03-11T03:43:46;7.05;;;1.50;;
69226;SDS011;56334;52.398;7.552;2023-03-11T03:46:12;2.35;;;0.55;;
69226;SDS011;56334;52.398;7.552;2023-03-11T03:48:38;10.38;;;1.85;;
69226;SDS011;56334;52.398;7.552;2023-03-11T03:51:05;7.53;;;1.70;;
69226;SDS011;56334;52.398;7.552;2023-03-11T03:53:32;12.20;;;2.00;;
69226;SDS011;56334;52.398;7.552;2023-03-11T03:56:02;7.55;;;1.25;;
69226;SDS011;56334;52.398;7.552;2023-03-11T03:58:29;16.33;;;1.73;;
69226;SDS011;56334;52.398;7.552;2023-03-11T04:00:55;4.72;;;1.30;;
69226;SDS011;56334;52.398;7.552;2023-03-11T04:03:21;7.80;;;1.60;;
69226;SDS011;56334;52.398;7.552;2023-03-11T04:05:47;6.32;;;1.48;;
69226;SDS011;56334;52.398;7.552;2023-03-11T04:08:13;5.72;;;1.77;;
69226;SDS011;56334;52.398;7.552;2023-03-11T04:10:39;6.90;;;1.50;;
69226;SDS011;56334;52.398;7.552;2023-03-11T04:13:05;8.48;;;1.70;;
69226;SDS011;56334;52.398;7.552;2023-03-11T04:15:31;5.95;;;1.30;;
69226;SDS011;56334;52.398;7.552;2023-03-11T04:17:57;6.03;;;1.35;;
69226;SDS011;56334;52.398;7.552;2023-03-11T04:20:24;6.32;;;1.02;;
69226;SDS011;56334;52.398;7.552;2023-03-11T04:22:50;7.25;;;1.40;;
69226;SDS011;56334;52.398;7.552;2023-03-11T04:25:16;6.28;;;1.73;;
69226;SDS011;56334;52.398;7.552;2023-03-11T04:27:42;4.25;;;1.17;;
69226;SDS011;56334;52.398;7.552;2023-03-11T04:32:35;8.65;;;1.70;;
69226;SDS011;56334;52.398;7.552;2023-03-11T04:35:01;7.07;;;1.48;;
69226;SDS011;56334;52.398;7.552;2023-03-11T04:37:28;3.45;;;0.82;;
69226;SDS011;56334;52.398;7.552;2023-03-11T04:39:54;5.32;;;0.80;;
69226;SDS011;56334;52.398;7.552;2023-03-11T04:42:20;5.93;;;1.33;;
69226;SDS011;56334;52.398;7.552;2023-03-11T04:44:46;7.78;;;1.80;;
69226;SDS011;56334;52.398;7.552;2023-03-11T04:47:12;9.45;;;1.48;;
69226;SDS011;56334;52.398;7.552;2023-03-11T04:49:40;6.43;;;0.90;;
69226;SDS011;56334;52.398;7.552;2023-03-11T04:52:06;5.72;;;1.35;;
69226;SDS011;56334;52.398;7.552;2023-03-11T04:54:32;5.10;;;1.27;;
69226;SDS011;56334;52.398;7.552;2023-03-11T04:56:58;5.70;;;1.30;;
69226;SDS011;56334;52.398;7.552;2023-03-11T04:59:25;7.65;;;1.60;;
69226;SDS011;56334;52.398;7.552;2023-03-11T05:01:51;9.00;;;1.45;;
69226;SDS011;56334;52.398;7.552;2023-03-11T05:04:17;9.43;;;1.70;;
69226;SDS011;56334;52.398;7.552;2023-03-11T05:06:43;7.70;;;1.42;;
69226;SDS011;56334;52.398;7.552;2023-03-11T05:09:09;4.88;;;1.20;;
69226;SDS011;56334;52.398;7.552;2023-03-11T05:11:35;4.30;;;1.10;;
69226;SDS011;56334;52.398;7.552;2023-03-11T05:14:01;6.13;;;1.45;;
69226;SDS011;56334;52.398;7.552;2023-03-11T05:16:27;9.20;;;1.40;;
69226;SDS011;56334;52.398;7.552;2023-03-11T05:18:54;6.82;;;1.45;;
69226;SDS011;56334;52.398;7.552;2023-03-11T05:21:20;6.43;;;1.45;;
69226;SDS011;56334;52.398;7.552;2023-03-11T05:23:46;8.65;;;1.50;;
69226;SDS011;56334;52.398;7.552;2023-03-11T05:26:12;6.47;;;1.45;;
69226;SDS011;56334;52.398;7.552;2023-03-11T05:28:41;6.15;;;1.30;;
69226;SDS011;56334;52.398;7.552;2023-03-11T05:31:11;6.53;;;1.33;;
69226;SDS011;56334;52.398;7.552;2023-03-11T05:33:37;7.60;;;1.45;;
69226;SDS011;56334;52.398;7.552;2023-03-11T05:36:07;7.47;;;1.60;;
69226;SDS011;56334;52.398;7.552;2023-03-11T05:38:34;6.03;;;1.38;;
69226;SDS011;56334;52.398;7.552;2023-03-11T05:41:01;6.50;;;1.50;;
69226;SDS011;56334;52.398;7.552;2023-03-11T05:43:27;9.13;;;1.85;;
69226;SDS011;56334;52.398;7.552;2023-03-11T05:45:53;6.35;;;1.30;;
69226;SDS011;56334;52.398;7.552;2023-03-11T05:48:20;8.50;;;1.70;;
69226;SDS011;56334;52.398;7.552;2023-03-11T05:50:46;10.50;;;1.60;;
69226;SDS011;56334;52.398;7.552;2023-03-11T05:53:12;7.25;;;1.65;;
69226;SDS011;56334;52.398;7.552;2023-03-11T05:55:40;9.25;;;1.60;;
69226;SDS011;56334;52.398;7.552;2023-03-11T05:58:07;5.72;;;1.05;;
69226;SDS011;56334;52.398;7.552;2023-03-11T06:00:33;4.97;;;1.20;;
69226;SDS011;56334;52.398;7.552;2023-03-11T06:02:59;6.90;;;1.40;;
69226;SDS011;56334;52.398;7.552;2023-03-11T06:05:25;6.28;;;1.33;;
69226;SDS011;56334;52.398;7.552;2023-03-11T06:07:51;10.15;;;1.50;;
69226;SDS011;56334;52.398;7.552;2023-03-11T06:10:17;6.85;;;1.33;;
69226;SDS011;56334;52.398;7.552;2023-03-11T06:12:43;8.57;;;1.90;;
69226;SDS011;56334;52.398;7.552;2023-03-11T06:15:09;5.65;;;1.45;;
69226;SDS011;56334;52.398;7.552;2023-03-11T06:17:35;6.35;;;1.67;;
69226;SDS011;56334;52.398;7.552;2023-03-11T06:20:01;6.57;;;1.40;;
69226;SDS011;56334;52.398;7.552;2023-03-11T06:22:30;6.07;;;1.65;;
69226;SDS011;56334;52.398;7.552;2023-03-11T06:24:56;6.10;;;1.38;;
69226;SDS011;56334;52.398;7.552;2023-03-11T06:27:22;7.05;;;1.60;;
69226;SDS011;56334;52.398;7.552;2023-03-11T06:29:50;7.78;;;1.77;;
69226;SDS011;56334;52.398;7.552;2023-03-11T06:32:17;8.25;;;1.40;;
69226;SDS011;56334;52.398;7.552;2023-03-11T06:34:43;8.85;;;2.20;;
69226;SDS011;56334;52.398;7.552;2023-03-11T06:37:10;6.18;;;1.45;;
69226;SDS011;56334;52.398;7.552;2023-03-11T06:39:36;7.18;;;1.60;;
69226;SDS011;56334;52.398;7.552;2023-03-11T06:42:02;7.93;;;1.75;;
69226;SDS011;56334;52.398;7.552;2023-03-11T06:44:28;8.63;;;1.50;;
69226;SDS011;56334;52.398;7.552;2023-03-11T06:46:54;8.43;;;1.48;;
69226;SDS011;56334;52.398;7.552;2023-03-11T06:49:20;9.02;;;1.63;;
69226;SDS011;56334;52.398;7.552;2023-03-11T06:51:46;5.72;;;1.38;;
69226;SDS011;56334;52.398;7.552;2023-03-11T06:54:12;4.75;;;1.27;;
69226;SDS011;56334;52.398;7.552;2023-03-11T06:56:38;5.65;;;1.30;;
69226;SDS011;56334;52.398;7.552;2023-03-11T06:59:04;8.18;;;1.40;;
69226;SDS011;56334;52.398;7.552;2023-03-11T07:01:30;7.10;;;1.60;;
69226;SDS011;56334;52.398;7.552;2023-03-11T07:03:59;8.30;;;1.73;;
69226;SDS011;56334;52.398;7.552;2023-03-11T07:06:26;7.88;;;1.63;;
69226;SDS011;56334;52.398;7.552;2023-03-11T07:08:52;8.73;;;1.95;;
69226;SDS011;56334;52.398;7.552;2023-03-11T07:11:23;8.68;;;2.17;;
69226;SDS011;56334;52.398;7.552;2023-03-11T07:13:51;7.05;;;1.60;;
69226;SDS011;56334;52.398;7.552;2023-03-11T07:16:19;6.80;;;1.45;;
69226;SDS011;56334;52.398;7.552;2023-03-11T07:18:46;5.63;;;1.40;;
69226;SDS011;56334;52.398;7.552;2023-03-11T07:21:13;10.02;;;1.85;;
69226;SDS011;56334;52.398;7.552;2023-03-11T07:23:40;4.25;;;1.10;;
69226;SDS011;56334;52.398;7.552;2023-03-11T07:26:09;6.38;;;1.58;;
69226;SDS011;56334;52.398;7.552;2023-03-11T07:28:35;4.55;;;1.20;;
69226;SDS011;56334;52.398;7.552;2023-03-11T07:31:05;7.57;;;1.42;;
69226;SDS011;56334;52.398;7.552;2023-03-11T07:33:32;9.60;;;1.98;;
69226;SDS011;56334;52.398;7.552;2023-03-11T07:35:58;8.48;;;1.60;;
69226;SDS011;56334;52.398;7.552;2023-03-11T07:38:24;7.68;;;1.60;;
69226;SDS011;56334;52.398;7.552;2023-03-11T07:40:56;6.57;;;1.80;;
69226;SDS011;56334;52.398;7.552;2023-03-11T07:43:23;7.03;;;1.40;;
69226;SDS011;56334;52.398;7.552;2023-03-11T07:45:49;9.20;;;1.63;;
69226;SDS011;56334;52.398;7.552;2023-03-11T07:48:15;6.72;;;1.67;;
69226;SDS011;56334;52.398;7.552;2023-03-11T07:50:41;7.25;;;1.60;;
69226;SDS011;56334;52.398;7.552;2023-03-11T07:53:07;7.10;;;1.65;;
69226;SDS011;56334;52.398;7.552;2023-03-11T07:55:33;6.22;;;1.40;;
69226;SDS011;56334;52.398;7.552;2023-03-11T07:58:00;5.68;;;1.52;;
69226;SDS011;56334;52.398;7.552;2023-03-11T08:00:26;9.98;;;1.80;;
69226;SDS011;56334;52.398;7.552;2023-03-11T08:02:52;6.35;;;2.00;;
69226;SDS011;56334;52.398;7.552;2023-03-11T08:05:18;8.80;;;1.88;;
69226;SDS011;56334;52.398;7.552;2023-03-11T08:07:45;9.48;;;1.80;;
69226;SDS011;56334;52.398;7.552;2023-03-11T08:10:11;8.25;;;1.70;;
69226;SDS011;56334;52.398;7.552;2023-03-11T08:12:37;7.38;;;2.17;;
69226;SDS011;56334;52.398;7.552;2023-03-11T08:15:03;8.35;;;1.60;;
69226;SDS011;56334;52.398;7.552;2023-03-11T08:17:29;7.72;;;1.65;;
69226;SDS011;56334;52.398;7.552;2023-03-11T08:19:55;5.80;;;1.50;;
69226;SDS011;56334;52.398;7.552;2023-03-11T08:22:21;7.43;;;1.60;;
69226;SDS011;56334;52.398;7.552;2023-03-11T08:24:51;6.70;;;1.63;;
69226;SDS011;56334;52.398;7.552;2023-03-11T08:27:17;6.13;;;1.60;;
69226;SDS011;56334;52.398;7.552;2023-03-11T08:29:43;7.03;;;1.70;;
69226;SDS011;56334;52.398;7.552;2023-03-11T08:32:09;8.18;;;1.50;;
69226;SDS011;56334;52.398;7.552;2023-03-11T08:34:36;10.02;;;1.83;;
69226;SDS011;56334;52.398;7.552;2023-03-11T08:37:03;6.40;;;1.48;;
69226;SDS011;56334;52.398;7.552;2023-03-11T08:39:29;6.88;;;1.55;;
69226;SDS011;56334;52.398;7.552;2023-03-11T08:41:55;6.68;;;1.38;;
69226;SDS011;56334;52.398;7.552;2023-03-11T08:44:21;4.63;;;1.30;;
69226;SDS011;56334;52.398;7.552;2023-03-11T08:46:47;7.93;;;1.55;;
69226;SDS011;56334;52.398;7.552;2023-03-11T08:49:13;6.93;;;1.80;;
69226;SDS011;56334;52.398;7.552;2023-03-11T08:51:39;5.70;;;1.50;;
69226;SDS011;56334;52.398;7.552;2023-03-11T08:54:06;6.63;;;1.73;;
69226;SDS011;56334;52.398;7.552;2023-03-11T08:56:33;13.93;;;1.70;;
69226;SDS011;56334;52.398;7.552;2023-03-11T08:59:00;6.72;;;1.60;;
69226;SDS011;56334;52.398;7.552;2023-03-11T09:01:26;5.95;;;1.55;;
69226;SDS011;56334;52.398;7.552;2023-03-11T09:03:53;6.10;;;1.67;;
69226;SDS011;56334;52.398;7.552;2023-03-11T09:06:19;6.50;;;1.67;;
69226;SDS011;56334;52.398;7.552;2023-03-11T09:08:46;7.68;;;1.60;;
69226;SDS011;56334;52.398;7.552;2023-03-11T09:11:13;9.20;;;1.75;;
69226;SDS011;56334;52.398;7.552;2023-03-11T09:13:39;6.55;;;1.73;;
69226;SDS011;56334;52.398;7.552;2023-03-11T09:16:11;7.93;;;1.70;;
69226;SDS011;56334;52.398;7.552;2023-03-11T09:18:37;8.02;;;2.17;;
69226;SDS011;56334;52.398;7.552;2023-03-11T09:21:03;6.30;;;1.77;;
69226;SDS011;56334;52.398;7.552;2023-03-11T09:23:29;6.75;;;1.90;;
69226;SDS011;56334;52.398;7.552;2023-03-11T09:25:55;8.43;;;1.52;;
69226;SDS011;56334;52.398;7.552;2023-03-11T09:28:22;9.63;;;1.58;;
69226;SDS011;56334;52.398;7.552;2023-03-11T09:30:48;8.38;;;2.00;;
69226;SDS011;56334;52.398;7.552;2023-03-11T09:33:14;6.13;;;1.73;;
69226;SDS011;56334;52.398;7.552;2023-03-11T09:35:40;8.25;;;1.67;;
69226;SDS011;56334;52.398;7.552;2023-03-11T09:38:06;6.70;;;1.52;;
69226;SDS011;56334;52.398;7.552;2023-03-11T09:40:40;8.48;;;1.83;;
69226;SDS011;56334;52.398;7.552;2023-03-11T09:45:36;7.53;;;1.55;;
69226;SDS011;56334;52.398;7.552;2023-03-11T10:00:36;13.60;;;2.85;;
69226;SDS011;56334;52.398;7.552;2023-03-11T10:03:02;5.85;;;1.50;;
69226;SDS011;56334;52.398;7.552;2023-03-11T10:05:31;6.57;;;1.70;;
69226;SDS011;56334;52.398;7.552;2023-03-11T10:08:02;8.07;;;1.88;;
69226;SDS011;56334;52.398;7.552;2023-03-11T10:10:32;6.80;;;1.70;;
69226;SDS011;56334;52.398;7.552;2023-03-11T10:13:10;7.63;;;1.50;;
69226;SDS011;56334;52.398;7.552;2023-03-11T10:15:48;7.70;;;1.77;;
69226;SDS011;56334;52.398;7.552;2023-03-11T10:20:49;8.48;;;2.17;;
69226;SDS011;56334;52.398;7.552;2023-03-11T10:28:31;7.28;;;1.70;;
69226;SDS011;56334;52.398;7.552;2023-03-11T10:33:55;6.80;;;1.70;;
69226;SDS011;56334;52.398;7.552;2023-03-11T10:36:23;6.68;;;1.70;;
69226;SDS011;56334;52.398;7.552;2023-03-11T10:38:51;9.73;;;1.58;;
69226;SDS011;56334;52.398;7.552;2023-03-11T10:43:48;7.55;;;1.67;;
69226;SDS011;56334;52.398;7.552;2023-03-11T10:46:25;8.60;;;1.92;;
69226;SDS011;56334;52.398;7.552;2023-03-11T10:48:52;6.15;;;1.50;;
69226;SDS011;56334;52.398;7.552;2023-03-11T10:51:22;10.10;;;1.83;;
69226;SDS011;56334;52.398;7.552;2023-03-11T10:53:50;8.93;;;1.80;;
69226;SDS011;56334;52.398;7.552;2023-03-11T10:58:49;7.20;;;1.60;;
69226;SDS011;56334;52.398;7.552;2023-03-11T11:01:17;6.57;;;1.50;;
69226;SDS011;56334;52.398;7.552;2023-03-11T11:03:49;6.38;;;1.40;;
69226;SDS011;56334;52.398;7.552;2023-03-11T11:09:06;6.60;;;1.63;;
69226;SDS011;56334;52.398;7.552;2023-03-11T11:11:33;6.63;;;1.48;;
69226;SDS011;56334;52.398;7.552;2023-03-11T11:14:01;6.45;;;1.60;;
69226;SDS011;56334;52.398;7.552;2023-03-11T11:16:27;5.78;;;1.58;;
69226;SDS011;56334;52.398;7.552;2023-03-11T11:18:56;7.05;;;1.50;;
69226;SDS011;56334;52.398;7.552;2023-03-11T11:21:37;6.75;;;1.35;;
69226;SDS011;56334;52.398;7.552;2023-03-11T11:24:24;5.72;;;1.50;;
69226;SDS011;56334;52.398;7.552;2023-03-11T11:29:36;8.50;;;1.65;;
69226;SDS011;56334;52.398;7.552;2023-03-11T11:32:19;7.03;;;1.33;;
69226;SDS011;56334;52.398;7.552;2023-03-11T11:34:52;6.97;;;1.35;;
69226;SDS011;56334;52.398;7.552;2023-03-11T11:37:19;5.88;;;1.55;;
69226;SDS011;56334;52.398;7.552;2023-03-11T11:39:52;5.78;;;1.67;;
69226;SDS011;56334;52.398;7.552;2023-03-11T11:42:20;6.63;;;1.55;;
69226;SDS011;56334;52.398;7.552;2023-03-11T11:44:48;4.55;;;1.30;;
69226;SDS011;56334;52.398;7.552;2023-03-11T11:47:32;9.98;;;2.03;;
69226;SDS011;56334;52.398;7.552;2023-03-11T11:50:03;7.28;;;1.50;;
69226;SDS011;56334;52.398;7.552;2023-03-11T11:52:31;7.43;;;1.42;;
69226;SDS011;56334;52.398;7.552;2023-03-11T11:55:00;7.15;;;1.70;;
69226;SDS011;56334;52.398;7.552;2023-03-11T11:57:27;7.55;;;1.70;;
69226;SDS011;56334;52.398;7.552;2023-03-11T11:59:53;5.60;;;1.17;;
69226;SDS011;56334;52.398;7.552;2023-03-11T12:07:46;8.07;;;1.30;;
69226;SDS011;56334;52.398;7.552;2023-03-11T12:15:49;4.85;;;1.15;;
69226;SDS011;56334;52.398;7.552;2023-03-11T12:21:14;8.10;;;1.60;;
69226;SDS011;56334;52.398;7.552;2023-03-11T12:26:23;3.00;;;0.85;;
69226;SDS011;56334;52.398;7.552;2023-03-11T12:28:58;7.95;;;1.70;;
69226;SDS011;56334;52.398;7.552;2023-03-11T12:31:26;8.45;;;1.70;;
69226;SDS011;56334;52.398;7.552;2023-03-11T12:33:59;6.75;;;1.50;;
69226;SDS011;56334;52.398;7.552;2023-03-11T12:36:31;5.90;;;1.27;;
69226;SDS011;56334;52.398;7.552;2023-03-11T12:38:58;8.48;;;1.45;;
69226;SDS011;56334;52.398;7.552;2023-03-11T12:41:32;5.45;;;1.52;;
69226;SDS011;56334;52.398;7.552;2023-03-11T12:44:40;9.23;;;1.67;;
69226;SDS011;56334;52.398;7.552;2023-03-11T12:47:32;7.18;;;1.45;;
69226;SDS011;56334;52.398;7.552;2023-03-11T12:50:35;6.75;;;1.42;;
69226;SDS011;56334;52.398;7.552;2023-03-11T12:52:51;7.10;;;1.40;;
69226;SDS011;56334;52.398;7.552;2023-03-11T12:57:52;5.72;;;1.42;;
69226;SDS011;56334;52.398;7.552;2023-03-11T13:10:48;6.72;;;1.60;;
69226;SDS011;56334;52.398;7.552;2023-03-11T13:18:40;8.13;;;1.90;;
69226;SDS011;56334;52.398;7.552;2023-03-11T13:21:52;8.75;;;1.40;;
69226;SDS011;56334;52.398;7.552;2023-03-11T13:26:41;7.25;;;1.27;;
69226;SDS011;56334;52.398;7.552;2023-03-11T13:29:33;8.70;;;1.50;;
69226;SDS011;56334;52.398;7.552;2023-03-11T13:37:15;6.03;;;1.42;;
69226;SDS011;56334;52.398;7.552;2023-03-11T13:44:54;4.10;;;1.00;;
69226;SDS011;56334;52.398;7.552;2023-03-11T13:47:20;6.93;;;1.00;;
69226;SDS011;56334;52.398;7.552;2023-03-11T13:49:58;3.83;;;0.90;;
69226;SDS011;56334;52.398;7.552;2023-03-11T13:52:29;4.65;;;1.20;;
69226;SDS011;56334;52.398;7.552;2023-03-11T13:55:04;6.43;;;1.30;;
69226;SDS011;56334;52.398;7.552;2023-03-11T13:57:35;5.63;;;1.10;;
69226;SDS011;56334;52.398;7.552;2023-03-11T14:00:14;8.30;;;1.35;;
69226;SDS011;56334;52.398;7.552;2023-03-11T14:03:24;6.28;;;1.20;;
69226;SDS011;56334;52.398;7.552;2023-03-11T14:05:31;5.63;;;1.30;;
69226;SDS011;56334;52.398;7.552;2023-03-11T14:10:57;5.32;;;1.20;;
69226;SDS011;56334;52.398;7.552;2023-03-11T14:13:24;4.28;;;1.10;;
69226;SDS011;56334;52.398;7.552;2023-03-11T14:20:48;7.40;;;1.30;;
69226;SDS011;56334;52.398;7.552;2023-03-11T14:23:15;7.15;;;1.20;;
69226;SDS011;56334;52.398;7.552;2023-03-11T14:25:43;6.90;;;1.33;;
69226;SDS011;56334;52.398;7.552;2023-03-11T14:28:16;6.25;;;1.10;;
69226;SDS011;56334;52.398;7.552;2023-03-11T14:30:57;4.28;;;1.00;;
69226;SDS011;56334;52.398;7.552;2023-03-11T14:33:23;5.07;;;1.40;;
69226;SDS011;56334;52.398;7.552;2023-03-11T14:35:54;3.55;;;0.98;;
69226;SDS011;56334;52.398;7.552;2023-03-11T14:38:23;5.00;;;1.10;;
69226;SDS011;56334;52.398;7.552;2023-03-11T14:40:54;3.53;;;1.00;;
69226;SDS011;56334;52.398;7.552;2023-03-11T14:43:23;4.68;;;1.02;;
69226;SDS011;56334;52.398;7.552;2023-03-11T14:45:50;5.28;;;1.20;;
69226;SDS011;56334;52.398;7.552;2023-03-11T14:48:21;4.30;;;1.00;;
69226;SDS011;56334;52.398;7.552;2023-03-11T14:50:49;4.32;;;1.02;;
69226;SDS011;56334;52.398;7.552;2023-03-11T14:53:29;5.15;;;1.00;;
69226;SDS011;56334;52.398;7.552;2023-03-11T14:56:01;5.38;;;1.15;;
69226;SDS011;56334;52.398;7.552;2023-03-11T14:58:40;2.63;;;0.70;;
69226;SDS011;56334;52.398;7.552;2023-03-11T15:03:38;5.25;;;0.85;;
69226;SDS011;56334;52.398;7.552;2023-03-11T15:08:33;3.67;;;0.85;;
69226;SDS011;56334;52.398;7.552;2023-03-11T15:11:17;5.38;;;1.08;;
69226;SDS011;56334;52.398;7.552;2023-03-11T15:13:44;7.40;;;1.27;;
69226;SDS011;56334;52.398;7.552;2023-03-11T15:18:57;6.20;;;1.20;;
69226;SDS011;56334;52.398;7.552;2023-03-11T15:21:24;5.30;;;1.00;;
69226;SDS011;56334;52.398;7.552;2023-03-11T15:23:51;5.15;;;1.10;;
69226;SDS011;56334;52.398;7.552;2023-03-11T15:26:28;5.93;;;0.90;;
69226;SDS011;56334;52.398;7.552;2023-03-11T15:28:56;2.47;;;0.95;;
69226;SDS011;56334;52.398;7.552;2023-03-11T15:31:28;5.07;;;0.90;;
69226;SDS011;56334;52.398;7.552;2023-03-11T15:33:55;3.05;;;0.82;;
69226;SDS011;56334;52.398;7.552;2023-03-11T15:36:33;4.70;;;1.02;;
69226;SDS011;56334;52.398;7.552;2023-03-11T15:42:02;4.25;;;1.27;;
69226;SDS011;56334;52.398;7.552;2023-03-11T15:46:54;5.45;;;1.00;;
69226;SDS011;56334;52.398;7.552;2023-03-11T15:49:21;5.10;;;0.80;;
69226;SDS011;56334;52.398;7.552;2023-03-11T15:51:47;5.13;;;1.00;;
69226;SDS011;56334;52.398;7.552;2023-03-11T15:54:13;4.90;;;0.88;;
69226;SDS011;56334;52.398;7.552;2023-03-11T15:56:39;2.65;;;0.85;;
69226;SDS011;56334;52.398;7.552;2023-03-11T15:59:06;3.85;;;0.90;;
69226;SDS011;56334;52.398;7.552;2023-03-11T16:01:33;3.70;;;0.90;;
69226;SDS011;56334;52.398;7.552;2023-03-11T16:03:59;3.88;;;0.95;;
69226;SDS011;56334;52.398;7.552;2023-03-11T16:06:25;4.28;;;0.90;;
69226;SDS011;56334;52.398;7.552;2023-03-11T16:08:51;3.65;;;0.80;;
69226;SDS011;56334;52.398;7.552;2023-03-11T16:11:18;4.38;;;0.90;;
69226;SDS011;56334;52.398;7.552;2023-03-11T16:13:44;4.40;;;0.80;;
69226;SDS011;56334;52.398;7.552;2023-03-11T16:16:16;3.53;;;0.80;;
69226;SDS011;56334;52.398;7.552;2023-03-11T16:18:43;3.42;;;0.65;;
69226;SDS011;56334;52.398;7.552;2023-03-11T16:21:13;5.47;;;0.88;;
69226;SDS011;56334;52.398;7.552;2023-03-11T16:23:40;4.55;;;0.77;;
69226;SDS011;56334;52.398;7.552;2023-03-11T16:26:06;2.63;;;0.80;;
69226;SDS011;56334;52.398;7.552;2023-03-11T16:28:34;5.43;;;0.70;;
69226;SDS011;56334;52.398;7.552;2023-03-11T16:31:00;3.92;;;0.80;;
69226;SDS011;56334;52.398;7.552;2023-03-11T16:33:26;3.63;;;0.80;;
69226;SDS011;56334;52.398;7.552;2023-03-11T16:35:52;2.47;;;0.77;;
69226;SDS011;56334;52.398;7.552;2023-03-11T16:38:20;4.32;;;0.80;;
69226;SDS011;56334;52.398;7.552;2023-03-11T16:40:57;4.43;;;0.90;;
69226;SDS011;56334;52.398;7.552;2023-03-11T16:43:24;3.42;;;0.70;;
69226;SDS011;56334;52.398;7.552;2023-03-11T16:45:50;3.45;;;0.80;;